Freeland, MI (48623)

3:31 PM EDT on April 25, 2017 (GMT -0400)
Mountain View | | Change Station

Elev 608 ft 43.47 °N, 84.12 °W | Updated 0 second ago

Overcast
Overcast
71.2 °F
Feels Like 76 °F
N
5.0
Wind Variable Wind from SW
Gusts 13.0 mph

Today
High -- | Low -- °F
--% Chance of Precip.
Yesterday
High -- | Low -- °F
Precip. -- in
Pressure 29.77 in
Visibility 10.0 miles
Clouds Overcast 4200 ft
Heat Index 76 °F
Dew Point 57 °F
Humidity 61%
Rainfall 0.00 in
Snow Depth Not available.
6:37 AM 8:31 PM
Waning Crescent, 1% visible
METAR KMBS 251853Z 16011G16KT 10SM OVC042 21/12 A2977 RMK AO2 SLP081 T02060117
Pressure 29.77 in
Visibility 10.0 miles
Clouds Overcast 4200 ft
Heat Index 76 °F
Dew Point 57 °F
Humidity 61%
Rainfall 0.00 in
Snow Depth Not available.
6:37 AM 8:31 PM
Waning Crescent, 1% visible
METAR KMBS 251853Z 16011G16KT 10SM OVC042 21/12 A2977 RMK AO2 SLP081 T02060117

Get Severe Weather Alerts

Thanks for signing up!

Be on the lookout for a verification email in your inbox.

You'll start receiving the daily forecast at 8 AM.

×

10-Day Weather Forecast

Almanac

Astronomy

Apr. 25, 2017 Rise Set
Actual Time
Civil Twilight
Nautical Twilight
Astronomical Twilight
Moon
Length of Visible Light
Length of Day
Tomorrow will be .
, % of the Moon is Illuminated

Today's Extremes

State Highs State Lows

Community

WunderPhotos

WunderBlog® & News

Nearby

Air Quality

  Air Quality AQ Index Pollutant
Not available.

Snow Depth

Station Depth Elevation

Earthquake Activity

City Distance Mag. Time & Date
Minimum magnitude displayed is 2.5.

Coastal Water Temperatures

Place Temperature

Stations

Nearby Weather Stations

Station Location Temp. Windchill Dew Point Humidity Wind Precip. Elev Updated Type
                   

Watches & Warnings

There are currently no watches in effect.